Time;durP1;ratioP1;P1;durP2;ratioP2;P2;SDS_P1;SDS_P2;PMS_P1;PMS_P2;Temp;Humidity;BMP_temperature;BMP_pressure;BME280_temperature;BME280_humidity;BME280_pressure;Samples;Min_cycle;Max_cycle;Signal;HPM_P1;HPM_P2
2024/04/05 00:01:05;;;;;;;0.00;0.00;;;;;;;-145.06;100.00;51732.13;10460043;28;20461;-73
2024/04/05 00:06:05;;;;;;;0.00;0.00;;;;;;;-145.06;100.00;51776.66;10466858;28;20057;-73
2024/04/05 00:11:05;;;;;;;0.00;0.00;;;;;;;-145.06;100.00;51685.59;10462604;28;20021;-73
2024/04/05 00:16:07;;;;;;;0.00;0.00;;;;;;;-145.06;100.00;51736.19;10465682;28;20020;-73
2024/04/05 00:21:08;;;;;;;0.10;0.10;;;;;;;-145.06;100.00;51720.00;10464143;28;20297;-73
2024/04/05 00:26:09;;;;;;;0.10;0.10;;;;;;;-145.06;100.00;51685.59;10466279;28;20074;-74
2024/04/05 00:31:10;;;;;;;0.10;0.10;;;;;;;-145.06;100.00;51740.22;10472461;28;20452;-73
2024/04/05 00:36:11;;;;;;;0.10;0.10;;;;;;;-145.06;100.00;51819.16;10474327;28;20027;-73
2024/04/05 00:41:11;;;;;;;0.00;0.00;;;;;;;-145.06;100.00;51853.56;10475552;28;20032;-73
2024/04/05 00:46:12;;;;;;;0.10;0.10;;;;;;;-145.06;100.00;51863.69;10468669;28;20029;-73
2024/04/05 00:51:12;;;;;;;0.10;0.10;;;;;;;-145.06;100.00;51922.41;10482692;28;20263;-74
2024/04/05 00:56:13;;;;;;;0.10;0.10;;;;;;;-145.06;100.00;51960.84;10481515;28;20043;-73
2024/04/05 01:01:13;;;;;;;0.10;0.10;;;;;;;-145.06;100.00;52011.47;10470562;28;20280;-73
2024/04/05 01:06:13;;;;;;;0.10;0.10;;;;;;;-145.06;100.00;52017.53;10479883;28;20047;-73
2024/04/05 01:11:13;;;;;;;0.10;0.10;;;;;;;-145.06;100.00;51991.22;10469891;28;20020;-73
2024/04/05 01:16:14;;;;;;;0.10;0.10;;;;;;;-145.06;100.00;52064.09;10467640;28;20095;-73
2024/04/05 01:21:14;;;;;;;0.08;0.08;;;;;;;-145.06;100.00;52082.31;10471667;28;20047;-73
2024/04/05 01:26:15;;;;;;;0.10;0.10;;;;;;;-145.06;100.00;52009.44;10468206;28;20090;-73
2024/04/05 01:31:15;;;;;;;0.10;0.10;;;;;;;-145.06;100.00;52023.59;10466051;28;20021;-73
2024/04/05 01:36:16;;;;;;;0.00;0.00;;;;;;;-145.06;100.00;52181.50;10469209;28;20318;-73
2024/04/05 01:41:19;;;;;;;0.10;0.10;;;;;;;-145.06;100.00;52252.34;10470721;28;20021;-73
2024/04/05 01:46:20;;;;;;;0.10;0.10;;;;;;;-145.06;100.00;52355.59;10470433;28;20406;-73
2024/04/05 01:51:20;;;;;;;0.10;0.10;;;;;;;-145.06;100.00;52392.03;10466286;28;20021;-73
2024/04/05 01:56:20;;;;;;;0.00;0.00;;;;;;;-145.06;100.00;52430.50;10466691;28;20406;-73
2024/04/05 02:01:21;;;;;;;0.00;0.00;;;;;;;-145.06;100.00;52379.88;10477707;28;20029;-73
2024/04/05 02:06:21;;;;;;;0.10;0.10;;;;;;;-145.06;100.00;52256.41;10484038;28;20025;-73
2024/04/05 02:11:21;;;;;;;0.03;0.03;;;;;;;-145.06;100.00;52228.06;10484170;28;20029;-73
2024/04/05 02:16:21;;;;;;;0.10;0.10;;;;;;;-145.06;100.00;52450.75;10484046;28;20029;-73
2024/04/05 02:21:23;;;;;;;0.10;0.10;;;;;;;-145.06;100.00;52545.88;10480525;28;20024;-73
2024/04/05 02:26:23;;;;;;;0.00;0.00;;;;;;;-145.06;100.00;52578.28;10481098;28;20425;-73
2024/04/05 02:31:23;;;;;;;0.10;0.10;;;;;;;-145.06;100.00;52464.91;10480983;28;20040;-73
2024/04/05 02:36:24;;;;;;;0.10;0.10;;;;;;;-145.06;100.00;52375.84;10487106;28;20029;-73
2024/04/05 02:41:24;;;;;;;0.00;0.00;;;;;;;-145.06;100.00;52313.06;10485322;28;20089;-73
2024/04/05 02:46:24;;;;;;;0.10;0.10;;;;;;;-145.06;100.00;52248.31;10479356;28;20024;-73
2024/04/05 02:51:25;;;;;;;0.00;0.00;;;;;;;-145.06;100.00;52126.84;10477491;28;20020;-73
2024/04/05 02:56:25;;;;;;;0.10;0.10;;;;;;;-145.06;100.00;51987.16;10481580;28;20033;-73
2024/04/05 03:01:25;;;;;;;0.10;0.10;;;;;;;-145.06;100.00;52049.91;10480273;28;20032;-73
2024/04/05 03:06:26;;;;;;;0.10;0.10;;;;;;;-145.06;100.00;52045.88;10466980;28;20027;-73
2024/04/05 03:11:26;;;;;;;0.03;0.03;;;;;;;-145.06;100.00;52013.50;10472904;28;20063;-73
2024/04/05 03:16:26;;;;;;;0.10;0.10;;;;;;;-145.06;100.00;51973.00;10470373;28;20031;-73
2024/04/05 03:21:26;;;;;;;0.10;0.10;;;;;;;-145.06;100.00;52035.75;10470501;28;20036;-73
2024/04/05 03:26:27;;;;;;;0.00;0.00;;;;;;;-145.06;100.00;52118.75;10480514;28;20394;-73
2024/04/05 03:31:27;;;;;;;0.00;0.00;;;;;;;-145.06;100.00;51956.81;10474564;28;20013;-73
2024/04/05 03:36:28;;;;;;;0.03;0.03;;;;;;;-145.06;100.00;51764.53;10484109;28;20097;-73
2024/04/05 03:41:28;;;;;;;0.00;0.00;;;;;;;-145.06;100.00;51620.81;10480489;28;20402;-73
2024/04/05 03:46:30;;;;;;;0.00;0.00;;;;;;;-145.06;100.00;51564.13;10479072;28;20521;-73
2024/04/05 03:51:30;;;;;;;0.10;0.10;;;;;;;-145.06;100.00;51511.50;10473612;28;20450;-73
2024/04/05 03:56:30;;;;;;;0.10;0.10;;;;;;;-145.06;100.00;51527.72;10473017;28;20054;-73
2024/04/05 04:01:31;;;;;;;0.10;0.10;;;;;;;-145.06;100.00;51311.16;10457746;28;20049;-73
2024/04/05 04:06:31;;;;;;;0.10;0.10;;;;;;;-145.06;100.00;51315.19;10473459;28;20498;-73
2024/04/05 04:11:31;;;;;;;0.10;0.10;;;;;;;-145.06;100.00;51355.69;10474746;28;20021;-73
2024/04/05 04:16:32;;;;;;;0.10;0.10;;;;;;;-145.06;100.00;51386.03;10480564;28;20408;-73
2024/04/05 04:21:32;;;;;;;0.10;0.10;;;;;;;-145.06;100.00;51422.47;10483328;28;20501;-73
2024/04/05 04:26:32;;;;;;;0.10;0.10;;;;;;;-145.06;100.00;51440.69;10478514;28;20763;-73
2024/04/05 04:31:32;;;;;;;0.10;0.10;;;;;;;-145.06;100.00;51462.94;10478990;28;20027;-73
2024/04/05 04:36:33;;;;;;;0.10;0.10;;;;;;;-145.06;100.00;51479.13;10479374;28;20025;-73
2024/04/05 04:41:34;;;;;;;0.10;0.10;;;;;;;-145.06;100.00;51493.31;10479438;28;20037;-73
2024/04/05 04:46:35;;;;;;;0.10;0.10;;;;;;;-145.06;100.00;51529.72;10487381;28;20020;-73
2024/04/05 04:51:35;;;;;;;0.10;0.10;;;;;;;-145.06;100.00;51543.91;10479456;28;20020;-73
2024/04/05 04:56:35;;;;;;;0.00;0.00;;;;;;;-145.06;100.00;51505.44;10476956;28;20094;-73
2024/04/05 05:01:36;;;;;;;0.00;0.00;;;;;;;-145.06;100.00;51515.56;10475567;28;20060;-73
2024/04/05 05:06:36;;;;;;;0.10;0.10;;;;;;;-145.06;100.00;51537.81;10480241;28;20481;-73
2024/04/05 05:11:36;;;;;;;0.10;0.10;;;;;;;-145.06;100.00;51543.91;10476003;28;20602;-73
2024/04/05 05:16:37;;;;;;;0.10;0.10;;;;;;;-145.06;100.00;51560.09;10482811;28;20024;-73
2024/04/05 05:21:38;;;;;;;0.10;0.10;;;;;;;-145.06;100.00;51570.22;10478079;28;20038;-74
2024/04/05 05:26:38;;;;;;;0.10;0.10;;;;;;;-145.06;100.00;51612.72;10474786;28;20116;-73
2024/04/05 05:31:38;;;;;;;0.00;0.00;;;;;;;-145.06;100.00;51590.44;10482798;28;20351;-73
2024/04/05 05:36:39;;;;;;;0.10;0.10;;;;;;;-145.06;100.00;51612.72;10479570;28;20267;-73
2024/04/05 05:41:39;;;;;;;0.10;0.10;;;;;;;-145.06;100.00;51630.94;10474577;28;20482;-73
2024/04/05 05:46:39;;;;;;;0.10;0.10;;;;;;;-145.06;100.00;51637.00;10479379;28;20028;-73
2024/04/05 05:51:40;;;;;;;0.10;0.10;;;;;;;-145.06;100.00;51612.72;10481689;28;20043;-73
2024/04/05 05:56:40;;;;;;;0.00;0.00;;;;;;;-145.06;100.00;51616.75;10478021;28;20309;-72
2024/04/05 06:01:41;;;;;;;0.10;0.10;;;;;;;-145.06;100.00;51596.53;10482132;28;20222;-73
2024/04/05 06:06:42;;;;;;;0.10;0.10;;;;;;;-145.06;100.00;51592.47;10486223;28;20028;-73
2024/04/05 06:11:45;;;;;;;0.08;0.08;;;;;;;-145.06;100.00;51574.25;10485989;28;20534;-72
2024/04/05 06:16:45;;;;;;;0.10;0.10;;;;;;;-145.06;100.00;51592.47;10481317;28;20031;-73
2024/04/05 06:21:45;;;;;;;0.10;0.10;;;;;;;-145.06;100.00;51608.66;10482563;28;20104;-72
2024/04/05 06:26:46;;;;;;;0.10;0.10;;;;;;;-145.06;100.00;51677.47;10486734;28;20016;-73
2024/04/05 06:31:46;;;;;;;0.00;0.00;;;;;;;-145.06;100.00;51691.66;10475473;28;20025;-72
2024/04/05 06:36:46;;;;;;;0.10;0.10;;;;;;;-145.06;100.00;51713.91;10479167;28;20238;-72
2024/04/05 06:41:48;;;;;;;0.00;0.00;;;;;;;-145.06;100.00;51701.78;10470078;28;20388;-72
2024/04/05 06:46:50;;;;;;;0.00;0.00;;;;;;;-145.06;100.00;51705.81;10471350;28;20061;-72
2024/04/05 06:51:50;;;;;;;0.10;0.10;;;;;;;-145.06;100.00;51681.53;10478351;28;20017;-72
2024/04/05 06:56:50;;;;;;;0.00;0.00;;;;;;;-145.06;100.00;51697.72;10467696;28;20012;-72
2024/04/05 07:01:52;;;;;;;0.10;0.10;;;;;;;-145.06;100.00;51709.88;10479043;28;20028;-72
2024/04/05 07:06:53;;;;;;;0.10;0.10;;;;;;;-145.06;100.00;51736.19;10468663;28;20024;-72
2024/04/05 07:11:53;;;;;;;0.00;0.00;;;;;;;-145.06;100.00;51707.84;10479299;28;20494;-72
2024/04/05 07:16:54;;;;;;;0.10;0.10;;;;;;;-145.06;100.00;51697.72;10467006;28;20029;-72
2024/04/05 07:21:54;;;;;;;0.10;0.10;;;;;;;-145.06;100.00;51675.47;10469354;28;20281;-72
2024/04/05 07:26:54;;;;;;;0.00;0.00;;;;;;;-145.06;100.00;51661.28;10473185;28;20267;-73
2024/04/05 07:31:54;;;;;;;0.10;0.10;;;;;;;-145.06;100.00;51632.97;10474691;28;20265;-72
2024/04/05 07:36:55;;;;;;;0.00;0.00;;;;;;;-145.06;100.00;51560.09;10469527;28;20024;-72
2024/04/05 07:41:55;;;;;;;0.10;0.10;;;;;;;-145.06;100.00;51511.50;10478316;28;20432;-72
2024/04/05 07:46:55;;;;;;;0.10;0.10;;;;;;;-145.06;100.00;51541.88;10468510;28;20020;-72
2024/04/05 07:51:56;;;;;;;0.10;0.10;;;;;;;-145.06;100.00;51537.81;10468513;28;20386;-73
2024/04/05 07:56:56;;;;;;;0.10;0.10;;;;;;;-145.06;100.00;51531.75;10471442;28;20549;-73
2024/04/05 08:01:56;;;;;;;0.00;0.00;;;;;;;-145.06;100.00;51507.47;10471205;28;20021;-73
2024/04/05 08:06:58;;;;;;;0.10;0.10;;;;;;;-145.06;100.00;51414.38;10468266;28;20413;-73
2024/04/05 08:11:58;;;;;;;0.10;0.10;;;;;;;-145.06;100.00;51375.91;10474197;28;20477;-73
2024/04/05 08:16:58;;;;;;;0.10;0.10;;;;;;;-145.06;100.00;51355.69;10470695;28;20020;-72
2024/04/05 08:21:58;;;;;;;0.10;0.10;;;;;;;-145.06;100.00;51260.56;10469812;28;20092;-72
2024/04/05 08:26:59;;;;;;;0.10;0.10;;;;;;;-145.06;100.00;51274.72;10466005;28;20025;-72
2024/04/05 08:31:59;;;;;;;0.10;0.10;;;;;;;-145.06;100.00;51286.88;10470284;28;20328;-72
2024/04/05 08:37:00;;;;;;;0.10;0.10;;;;;;;-145.06;100.00;51301.03;10472198;28;20032;-73
2024/04/05 08:42:17;;;;;;;0.00;0.00;;;;;;;-145.06;100.00;51305.09;10470193;28;20032;-72
2024/04/05 08:47:18;;;;;;;0.10;0.10;;;;;;;-145.06;100.00;51392.09;10474115;28;20051;-72
2024/04/05 08:52:18;;;;;;;0.10;0.10;;;;;;;-145.06;100.00;51299.00;10476988;28;20025;-72
2024/04/05 08:57:20;;;;;;;0.10;0.10;;;;;;;-145.06;99.01;51242.34;10477258;28;20115;-72
2024/04/05 09:02:23;;;;;;;0.10;0.10;;;;;;;-145.06;94.33;51286.88;10468905;28;20289;-72
2024/04/05 09:07:23;;;;;;;0.00;0.00;;;;;;;-145.06;97.06;51410.31;10476160;28;20036;-72
2024/04/05 09:12:26;;;;;;;0.00;0.00;;;;;;;-145.06;100.00;51434.59;10474945;28;20019;-72
2024/04/05 09:17:27;;;;;;;0.10;0.10;;;;;;;-145.06;100.00;51442.69;10475612;28;20052;-72
2024/04/05 09:22:27;;;;;;;0.00;0.00;;;;;;;-145.06;100.00;51434.59;10473284;28;20034;-72
2024/04/05 09:27:27;;;;;;;0.00;0.00;;;;;;;-145.06;100.00;51539.84;10472799;28;20017;-72
2024/04/05 09:32:28;;;;;;;0.00;0.00;;;;;;;-145.06;100.00;51556.03;10472519;28;20012;-72
2024/04/05 09:37:29;;;;;;;0.00;0.00;;;;;;;-145.06;100.00;51556.03;10465314;28;20039;-72
2024/04/05 09:42:30;;;;;;;0.10;0.10;;;;;;;-145.06;100.00;51560.09;10471327;28;20017;-72
2024/04/05 09:47:31;;;;;;;0.10;0.10;;;;;;;-145.06;100.00;51507.47;10475319;28;20493;-72
2024/04/05 09:52:36;;;;;;;0.00;0.00;;;;;;;-145.06;100.00;51554.03;10470575;28;20024;-72
2024/04/05 09:57:36;;;;;;;0.00;0.00;;;;;;;-145.06;100.00;51471.03;10474340;28;20153;-72
2024/04/05 10:02:37;;;;;;;0.10;0.10;;;;;;;-145.06;100.00;51418.41;10475874;28;20120;-72
2024/04/05 10:07:37;;;;;;;0.00;0.00;;;;;;;-145.06;100.00;51402.22;10469122;28;20269;-73
2024/04/05 10:12:37;;;;;;;0.10;0.10;;;;;;;-145.06;100.00;51424.50;10474910;28;20024;-73
2024/04/05 10:17:38;;;;;;;0.00;0.00;;;;;;;-145.06;100.00;51442.69;10475407;28;20026;-72
2024/04/05 10:22:39;;;;;;;0.00;0.00;;;;;;;-145.06;100.00;51454.84;10472534;28;20104;-73
2024/04/05 10:27:39;;;;;;;0.00;0.00;;;;;;;-145.06;100.00;51471.03;10470773;28;20024;-72
2024/04/05 10:32:39;;;;;;;0.00;0.00;;;;;;;-145.06;100.00;51527.72;10475922;28;20021;-72
2024/04/05 10:37:40;;;;;;;0.00;0.00;;;;;;;-145.06;100.00;51531.75;10465580;28;20024;-73
2024/04/05 10:42:41;;;;;;;0.00;0.00;;;;;;;-145.06;100.00;51564.13;10469842;28;20551;-72
2024/04/05 10:47:50;;;;;;;0.00;0.00;;;;;;;-145.06;100.00;51543.91;10462758;28;20043;-72
2024/04/05 10:52:54;;;;;;;0.10;0.10;;;;;;;-145.06;100.00;51586.41;10472426;28;20017;-72
2024/04/05 10:57:56;;;;;;;0.10;0.10;;;;;;;-145.06;100.00;51566.16;10471297;28;20020;-72
2024/04/05 11:02:56;;;;;;;0.00;0.00;;;;;;;-145.06;100.00;51604.63;10465758;28;20119;-71
2024/04/05 11:07:59;;;;;;;0.10;0.10;;;;;;;-145.06;100.00;51576.28;10473200;28;20016;-72
2024/04/05 11:13:01;;;;;;;0.10;0.10;;;;;;;-145.06;100.00;51560.09;10473291;28;20740;-72
2024/04/05 11:18:03;;;;;;;0.10;0.10;;;;;;;-145.06;100.00;51580.34;10466416;28;20025;-72
2024/04/05 11:23:17;;;;;;;0.00;0.00;;;;;;;-145.06;100.00;51578.31;10469380;28;20040;-72
2024/04/05 11:28:22;;;;;;;;;;;;;;;-145.06;100.00;51554.03;10464390;28;20024;-72
2024/04/05 11:33:22;;;;;;;0.00;0.00;;;;;;;-145.06;100.00;51594.50;10465194;28;19909;-73
2024/04/05 11:38:23;;;;;;;0.10;0.10;;;;;;;-145.06;100.00;51580.34;10473101;28;20020;-72
2024/04/05 11:43:24;;;;;;;0.10;0.10;;;;;;;-145.06;100.00;51554.03;10464103;28;20486;-71
2024/04/05 11:48:24;;;;;;;0.10;0.10;;;;;;;-145.06;100.00;51539.84;10460315;28;20036;-73
2024/04/05 11:53:24;;;;;;;0.00;0.00;;;;;;;-145.06;100.00;51533.78;10463654;28;20017;-74
2024/04/05 11:58:25;;;;;;;0.10;0.10;;;;;;;-145.06;100.00;51513.53;10474034;28;20048;-73
2024/04/05 12:03:25;;;;;;;0.00;0.00;;;;;;;-145.06;100.00;51436.63;10472563;28;20040;-73
2024/04/05 12:08:26;;;;;;;0.10;0.10;;;;;;;-145.06;100.00;51386.03;10469765;28;20029;-73
2024/04/05 12:13:26;;;;;;;0.10;0.10;;;;;;;-145.06;100.00;51345.56;10467244;28;20024;-73
2024/04/05 12:18:26;;;;;;;0.00;0.00;;;;;;;-145.06;100.00;51311.16;10466508;28;20409;-73
2024/04/05 12:23:27;;;;;;;0.00;0.00;;;;;;;-145.06;100.00;51272.69;10481895;28;20048;-72
2024/04/05 12:28:27;;;;;;;0.10;0.10;;;;;;;-145.06;100.00;51216.03;10476271;28;20055;-73
2024/04/05 12:33:27;;;;;;;0.10;0.10;;;;;;;-145.06;100.00;51167.47;10475226;28;20028;-73
2024/04/05 12:38:29;;;;;;;0.10;0.10;;;;;;;-145.06;100.00;51133.06;10477120;28;20023;-72
2024/04/05 12:43:29;;;;;;;0.00;0.00;;;;;;;-145.06;100.00;51074.38;10480955;28;20482;-73
2024/04/05 12:48:30;;;;;;;0.00;0.00;;;;;;;-145.06;100.00;51076.41;10479014;28;20024;-73
2024/04/05 12:53:31;;;;;;;0.10;0.10;;;;;;;-145.06;100.00;51046.03;10473759;28;20036;-72
2024/04/05 12:58:37;;;;;;;0.00;0.00;;;;;;;-145.06;100.00;51098.66;10472327;28;20501;-73
2024/04/05 13:03:37;;;;;;;0.00;0.00;;;;;;;-145.06;100.00;51116.88;10481346;28;20044;-73
2024/04/05 13:08:39;;;;;;;0.10;0.10;;;;;;;-145.06;100.00;51100.69;10485625;28;20032;-73
2024/04/05 13:13:40;;;;;;;0.10;0.10;;;;;;;-145.06;100.00;51050.09;10482406;28;20029;-73
2024/04/05 13:18:42;;;;;;;0.10;0.10;;;;;;;-145.06;100.00;51046.03;10485066;28;20515;-72
2024/04/05 13:23:45;;;;;;;0.10;0.10;;;;;;;-145.06;100.00;51058.19;10487480;28;20055;-73
2024/04/05 13:28:49;;;;;;;0.10;0.10;;;;;;;-145.06;100.00;51044.00;10484863;28;20184;-73
2024/04/05 13:33:49;;;;;;;0.00;0.00;;;;;;;-145.06;100.00;51037.94;10482194;28;20021;-73
2024/04/05 13:38:51;;;;;;;0.10;0.10;;;;;;;-145.06;100.00;51025.81;10485145;28;20446;-73
2024/04/05 13:43:52;;;;;;;0.10;0.10;;;;;;;-145.06;100.00;51037.94;10485004;28;20034;-73
2024/04/05 13:48:52;;;;;;;0.00;0.00;;;;;;;-145.06;100.00;51015.69;10479329;28;20106;-72
2024/04/05 13:53:56;;;;;;;0.10;0.10;;;;;;;-145.06;100.00;51037.94;10481557;28;20023;-73
2024/04/05 13:58:57;;;;;;;0.10;0.10;;;;;;;-145.06;100.00;51037.94;10484402;28;20020;-72
2024/04/05 14:03:57;;;;;;;0.10;0.10;;;;;;;-145.06;100.00;51021.75;10482453;28;20478;-73
2024/04/05 14:08:57;;;;;;;0.10;0.10;;;;;;;-145.06;100.00;51017.72;10484664;28;20461;-73
2024/04/05 14:13:58;;;;;;;0.10;0.10;;;;;;;-145.06;100.00;50985.31;10482108;28;20029;-72
2024/04/05 14:18:58;;;;;;;0.10;0.10;;;;;;;-145.06;100.00;50959.03;10483019;28;20074;-72
2024/04/05 14:23:58;;;;;;;0.00;0.00;;;;;;;-145.06;100.00;50944.84;10484725;28;20169;-73
2024/04/05 14:28:58;;;;;;;0.00;0.00;;;;;;;-145.06;100.00;50936.75;10484769;28;20028;-73
2024/04/05 14:33:59;;;;;;;0.00;0.00;;;;;;;-145.06;100.00;50940.81;10481399;28;20421;-73
2024/04/05 14:38:59;;;;;;;0.00;0.00;;;;;;;-145.06;100.00;50926.66;10483111;28;20424;-72
2024/04/05 14:43:59;;;;;;;0.10;0.10;;;;;;;-145.06;100.00;50902.34;10482372;28;20021;-73
2024/04/05 14:49:00;;;;;;;0.03;0.03;;;;;;;-145.06;100.00;50849.75;10481668;28;20070;-73
2024/04/05 14:54:01;;;;;;;0.03;0.03;;;;;;;-145.06;100.00;50797.13;10483517;28;20012;-72
2024/04/05 14:59:03;;;;;;;0.10;0.10;;;;;;;-145.06;100.00;50863.91;10482829;28;20036;-73
2024/04/05 15:04:03;;;;;;;0.10;0.10;;;;;;;-145.06;100.00;50946.88;10478839;28;20054;-73
2024/04/05 15:09:03;;;;;;;0.00;0.00;;;;;;;-145.06;100.00;50995.44;10480294;28;20058;-74
2024/04/05 15:14:05;;;;;;;0.10;0.10;;;;;;;-145.06;100.00;50983.31;10480339;28;20025;-73
2024/04/05 15:19:07;;;;;;;0.10;0.10;;;;;;;-145.06;100.00;50995.44;10476495;28;20108;-73
2024/04/05 15:24:08;;;;;;;0.10;0.10;;;;;;;-145.06;100.00;51044.00;10480448;28;20020;-73
2024/04/05 15:29:09;;;;;;;0.00;0.00;;;;;;;-145.06;100.00;51042.00;10484458;28;20053;-73
2024/04/05 15:34:09;;;;;;;0.10;0.10;;;;;;;-145.06;100.00;51023.78;10481918;28;20028;-73
2024/04/05 15:39:10;;;;;;;0.00;0.00;;;;;;;-145.06;100.00;51054.13;10480671;28;20024;-73
2024/04/05 15:44:10;;;;;;;0.00;0.00;;;;;;;-145.06;100.00;51076.41;10462742;28;20021;-73
2024/04/05 15:49:10;;;;;;;0.10;0.10;;;;;;;-145.06;100.00;51110.78;10476147;28;20025;-73
2024/04/05 15:54:10;;;;;;;0.10;0.10;;;;;;;-145.06;100.00;51149.25;10482333;28;20020;-73
2024/04/05 15:59:11;;;;;;;0.10;0.10;;;;;;;-145.06;100.00;51236.28;10479692;28;20032;-72
2024/04/05 16:04:11;;;;;;;0.00;0.00;;;;;;;-145.06;100.00;51450.81;10479070;28;20389;-73
2024/04/05 16:09:11;;;;;;;0.00;0.00;;;;;;;-145.06;100.00;51406.28;10478661;28;20375;-73
2024/04/05 16:14:12;;;;;;;0.00;0.00;;;;;;;-145.06;100.00;51422.47;10480222;28;20090;-73
2024/04/05 16:19:12;;;;;;;0.10;0.10;;;;;;;-145.06;100.00;51408.28;10479406;28;20021;-74
2024/04/05 16:24:12;;;;;;;0.10;0.10;;;;;;;-145.06;100.00;51392.09;10481421;28;20021;-73
2024/04/05 16:29:13;;;;;;;0.00;0.00;;;;;;;-145.06;100.00;51371.88;10481278;28;20024;-73
2024/04/05 16:34:14;;;;;;;0.00;0.00;;;;;;;-145.06;100.00;51390.09;10476685;28;20036;-73
2024/04/05 16:39:15;;;;;;;0.10;0.10;;;;;;;-145.06;100.00;51436.63;10484568;28;20031;-74
2024/04/05 16:44:15;;;;;;;0.10;0.10;;;;;;;-145.06;100.00;51499.38;10488092;28;20031;-74
2024/04/05 16:49:15;;;;;;;0.10;0.10;;;;;;;-145.06;100.00;51481.16;10486094;28;20024;-74
2024/04/05 16:54:16;;;;;;;0.10;0.10;;;;;;;-145.06;100.00;51495.31;10483024;28;20016;-73
2024/04/05 16:59:16;;;;;;;0.10;0.10;;;;;;;-145.06;100.00;51519.63;10480329;28;20505;-74
2024/04/05 17:04:16;;;;;;;0.10;0.10;;;;;;;-145.06;100.00;51549.97;10478260;28;20072;-73
2024/04/05 17:09:16;;;;;;;0.10;0.10;;;;;;;-145.06;100.00;51572.22;10482649;28;20362;-73
2024/04/05 17:14:17;;;;;;;0.10;0.10;;;;;;;-145.06;100.00;51600.56;10475846;28;20079;-73
2024/04/05 17:19:17;;;;;;;0.10;0.10;;;;;;;-145.06;100.00;51620.81;10477479;28;20016;-73
2024/04/05 17:24:18;;;;;;;0.10;0.10;;;;;;;-145.06;100.00;51608.66;10478185;28;20031;-73
2024/04/05 17:29:18;;;;;;;0.10;0.10;;;;;;;-145.06;100.00;51624.84;10488591;28;20020;-72
2024/04/05 17:34:18;;;;;;;0.10;0.10;;;;;;;-145.06;100.00;51671.41;10478047;28;20056;-73
2024/04/05 17:39:19;;;;;;;0.10;0.10;;;;;;;-145.06;100.00;51701.78;10479807;28;20036;-72
2024/04/05 17:44:19;;;;;;;0.10;0.10;;;;;;;-145.06;100.00;51766.53;10482179;28;20021;-72
2024/04/05 17:49:19;;;;;;;0.10;0.10;;;;;;;-145.06;100.00;51774.63;10473799;28;20692;-72
2024/04/05 17:54:21;;;;;;;0.00;0.00;;;;;;;-145.06;100.00;51792.84;10476711;28;20024;-73
2024/04/05 17:59:21;;;;;;;0.10;0.10;;;;;;;-145.06;100.00;51764.53;10481559;28;20021;-72
2024/04/05 18:04:24;;;;;;;0.10;0.10;;;;;;;-145.06;100.00;51823.22;10479460;28;20040;-72
2024/04/05 18:09:25;;;;;;;0.10;0.10;;;;;;;-145.06;100.00;51782.72;10473536;28;20118;-72
2024/04/05 18:14:25;;;;;;;0.10;0.10;;;;;;;-145.06;100.00;51837.38;10480477;28;20051;-72
2024/04/05 18:19:25;;;;;;;0.08;0.08;;;;;;;-145.06;100.00;51821.19;10477885;28;20025;-73
2024/04/05 18:24:26;;;;;;;0.10;0.10;;;;;;;-145.06;100.00;51837.38;10475611;28;20021;-72
2024/04/05 18:29:26;;;;;;;0.10;0.10;;;;;;;-145.06;100.00;51851.56;10478243;28;20020;-72
2024/04/05 18:34:27;;;;;;;0.10;0.10;;;;;;;-145.06;100.00;51861.69;10465536;28;20070;-72
2024/04/05 18:39:28;;;;;;;0.10;0.10;;;;;;;-145.06;100.00;51867.75;10478298;28;20529;-72
2024/04/05 18:44:35;;;;;;;0.10;0.10;;;;;;;-145.06;100.00;51894.06;10474709;28;20025;-72
2024/04/05 18:49:36;;;;;;;0.10;0.10;;;;;;;-145.06;100.00;51906.22;10474894;28;20115;-73
2024/04/05 18:54:38;;;;;;;0.10;0.10;;;;;;;-145.06;100.00;51908.22;10471173;28;20390;-72
2024/04/05 18:59:38;;;;;;;0.10;0.10;;;;;;;-145.06;100.00;51930.50;10472418;28;20157;-72
2024/04/05 19:04:39;;;;;;;0.10;0.10;;;;;;;-145.06;100.00;51894.06;10473565;28;20089;-72
2024/04/05 19:09:40;;;;;;;0.10;0.10;;;;;;;-145.06;100.00;51932.53;10478146;28;20021;-73
2024/04/05 19:14:41;;;;;;;0.10;0.10;;;;;;;-145.06;100.00;51920.38;10471185;28;20020;-73
2024/04/05 19:19:42;;;;;;;0.10;0.10;;;;;;;-145.06;100.00;51928.47;10476607;28;20031;-72
2024/04/05 19:24:46;;;;;;;0.10;0.10;;;;;;;-145.06;100.00;51928.47;10470939;28;20279;-72
2024/04/05 19:29:47;;;;;;;0.10;0.10;;;;;;;-145.06;100.00;51934.53;10479445;28;20508;-73
2024/04/05 19:34:48;;;;;;;0.10;0.10;;;;;;;-145.06;100.00;51932.53;10471398;28;20444;-72
2024/04/05 19:39:53;;;;;;;0.00;0.00;;;;;;;-145.06;100.00;51912.28;10476692;28;20055;-72
2024/04/05 19:44:54;;;;;;;0.10;0.10;;;;;;;-145.06;100.00;51902.16;10475091;28;20064;-72
2024/04/05 19:49:54;;;;;;;0.10;0.10;;;;;;;-145.06;100.00;51912.28;10470231;28;20470;-73
2024/04/05 19:54:54;;;;;;;0.00;0.00;;;;;;;-145.06;100.00;51940.63;10476055;28;20013;-72
2024/04/05 19:59:55;;;;;;;0.00;0.00;;;;;;;-145.06;100.00;51928.47;10472456;28;20017;-73
2024/04/05 20:04:55;;;;;;;0.10;0.10;;;;;;;-145.06;100.00;51954.78;10475198;28;20109;-73
2024/04/05 20:09:55;;;;;;;0.05;0.05;;;;;;;-145.06;100.00;51960.84;10473108;28;20027;-72
2024/04/05 20:14:55;;;;;;;0.10;0.10;;;;;;;-145.06;100.00;51983.13;10467122;28;20095;-72
2024/04/05 20:19:56;;;;;;;0.10;0.10;;;;;;;-145.06;100.00;51983.13;10466699;28;20021;-72
2024/04/05 20:24:56;;;;;;;0.10;0.10;;;;;;;-145.06;100.00;51983.13;10468426;28;20103;-72
2024/04/05 20:35:33;;;;;;;0.10;0.10;;;;;;;-145.06;100.00;51981.09;10430728;28;20032;-72
2024/04/05 20:40:33;;;;;;;0.10;0.10;;;;;;;-145.06;100.00;51981.09;10468917;28;20042;-72
2024/04/05 20:45:33;;;;;;;0.10;0.10;;;;;;;-145.06;100.00;51970.97;10472455;28;20032;-73
2024/04/05 20:50:33;;;;;;;0.05;0.05;;;;;;;-145.06;100.00;51983.13;10475569;28;20043;-73
2024/04/05 20:55:34;;;;;;;0.10;0.10;;;;;;;-145.06;100.00;51993.25;10475210;28;20020;-72
2024/04/05 21:00:35;;;;;;;0.10;0.10;;;;;;;-145.06;100.00;52013.50;10474950;28;20020;-72
2024/04/05 21:05:35;;;;;;;0.00;0.00;;;;;;;-145.06;100.00;52011.47;10471992;28;20052;-72
2024/04/05 21:10:35;;;;;;;0.10;0.10;;;;;;;-145.06;100.00;52011.47;10476876;28;20020;-72
2024/04/05 21:15:36;;;;;;;0.10;0.10;;;;;;;-145.06;100.00;52041.81;10471476;28;20080;-73
2024/04/05 21:20:38;;;;;;;0.00;0.00;;;;;;;-145.06;100.00;52074.22;10477003;28;20028;-73
2024/04/05 21:25:39;;;;;;;0.10;0.10;;;;;;;-145.06;100.00;52070.16;10473028;28;20027;-72
2024/04/05 21:30:39;;;;;;;0.10;0.10;;;;;;;-145.06;100.00;52068.13;10474437;28;20028;-72
2024/04/05 21:35:40;;;;;;;0.00;0.00;;;;;;;-145.06;100.00;52064.09;10474874;28;20069;-72
2024/04/05 21:40:40;;;;;;;0.10;0.10;;;;;;;-145.06;100.00;52074.22;10477033;28;20012;-72
2024/04/05 21:45:40;;;;;;;0.10;0.10;;;;;;;-145.06;100.00;52072.19;10472096;28;20697;-72
2024/04/05 21:50:41;;;;;;;0.10;0.10;;;;;;;-145.06;100.00;52078.25;10468654;28;20386;-72
2024/04/05 21:55:41;;;;;;;0.10;0.10;;;;;;;-145.06;100.00;52084.34;10472279;28;20266;-72
2024/04/05 22:00:43;;;;;;;0.10;0.10;;;;;;;-145.06;100.00;52090.41;10470078;28;20293;-72
2024/04/05 22:05:44;;;;;;;0.10;0.10;;;;;;;-145.06;100.00;52102.56;10475504;28;20105;-72
2024/04/05 22:10:44;;;;;;;0.00;0.00;;;;;;;-145.06;100.00;52096.47;10467446;28;20025;-72
2024/04/05 22:15:45;;;;;;;0.10;0.10;;;;;;;-145.06;100.00;52102.56;10472177;28;20509;-71
2024/04/05 22:20:45;;;;;;;0.00;0.00;;;;;;;-145.06;100.00;52106.59;10474423;28;20500;-73
2024/04/05 22:25:45;;;;;;;0.10;0.10;;;;;;;-145.06;100.00;52110.66;10463238;28;20340;-71
2024/04/05 22:30:46;;;;;;;0.10;0.10;;;;;;;-145.06;100.00;52126.84;10477207;28;20388;-72
2024/04/05 22:35:47;;;;;;;0.10;0.10;;;;;;;-145.06;100.00;52106.59;10466343;28;20017;-71